Time;durP1;ratioP1;P1;durP2;ratioP2;P2;SDS_P1;SDS_P2;PMS_P1;PMS_P2;Temp;Humidity;BMP_temperature;BMP_pressure;BME280_temperature;BME280_humidity;BME280_pressure;Samples;Min_cycle;Max_cycle;Signal;HPM_P1;HPM_P2
2023/03/18 00:04:24;;;;;;;24.33;13.40;;;9.90;89.80;;;;;;10058356;29;20261;-87
2023/03/18 00:09:27;;;;;;;14.03;9.30;;;9.70;85.80;;;;;;10062333;29;20241;-87
2023/03/18 00:14:30;;;;;;;15.53;9.77;;;9.50;97.60;;;;;;10091458;29;20240;-87
2023/03/18 00:19:33;;;;;;;18.63;11.13;;;9.10;96.40;;;;;;10078892;29;20277;-87
2023/03/18 00:24:36;;;;;;;17.80;11.10;;;8.80;94.70;;;;;;10088273;29;20284;-87
2023/03/18 00:29:40;;;;;;;18.70;11.87;;;8.90;94.00;;;;;;10088066;29;20250;-87
2023/03/18 00:34:43;;;;;;;13.30;8.40;;;8.50;92.70;;;;;;10053813;29;20301;-87
2023/03/18 00:39:45;;;;;;;14.17;9.00;;;8.20;99.90;;;;;;10055480;29;20660;-86
2023/03/18 00:44:48;;;;;;;16.30;11.27;;;8.40;99.90;;;;;;10092734;29;20791;-87
2023/03/18 00:49:51;;;;;;;14.87;9.03;;;7.60;92.70;;;;;;10092904;29;20240;-87
2023/03/18 00:54:54;;;;;;;19.20;11.47;;;8.30;99.90;;;;;;10085372;29;20589;-87
2023/03/18 00:59:58;;;;;;;20.47;11.83;;;8.00;95.30;;;;;;10091693;29;20702;-87
2023/03/18 01:05:02;;;;;;;19.83;9.77;;;7.90;91.10;;;;;;10069110;29;20624;-87
2023/03/18 01:10:06;;;;;;;21.47;11.53;;;7.50;99.90;;;;;;10084197;29;20265;-87
2023/03/18 01:15:12;;;;;;;16.20;9.37;;;8.10;99.90;;;;;;10089800;29;20924;-87
2023/03/18 01:20:18;;;;;;;13.43;8.13;;;7.90;99.90;;;;;;10089063;29;20668;-87
2023/03/18 01:25:26;;;;;;;24.73;13.87;;;8.40;99.90;;;;;;10051595;29;20309;-87
2023/03/18 01:30:29;;;;;;;10.40;6.63;;;9.00;94.90;;;;;;10052920;29;20282;-87
2023/03/18 01:35:34;;;;;;;19.77;11.27;;;8.70;99.90;;;;;;10089755;29;20244;-87
2023/03/18 01:40:41;;;;;;;14.20;9.47;;;8.80;94.70;;;;;;10090457;29;20728;-87
2023/03/18 01:45:52;;;;;;;18.90;10.73;;;8.10;97.10;;;;;;10089739;29;20233;-87
2023/03/18 01:51:05;;;;;;;16.43;11.17;;;7.90;96.60;;;;;;10081555;29;20300;-87
2023/03/18 01:56:08;;;;;;;17.83;11.10;;;7.80;99.90;;;;;;10052529;29;20253;-87
2023/03/18 02:01:16;;;;;;;17.67;10.73;;;7.50;99.90;;;;;;10050272;29;20276;-87
2023/03/18 02:06:21;;;;;;;12.93;8.40;;;7.20;99.90;;;;;;10083166;29;20248;-87
2023/03/18 02:11:35;;;;;;;20.20;13.00;;;7.50;99.90;;;;;;10064926;29;20249;-87
2023/03/18 02:16:49;;;;;;;21.57;11.70;;;7.80;96.60;;;;;;10088892;29;20257;-87
2023/03/18 02:22:20;;;;;;;12.13;7.97;;;6.80;98.00;;;;;;10064603;29;20291;-87
2023/03/18 02:27:30;;;;;;;19.67;12.77;;;7.00;99.90;;;;;;10083580;29;20205;-87
2023/03/18 02:32:34;;;;;;;13.60;9.77;;;7.60;99.30;;;;;;10088177;29;20252;-87
2023/03/18 02:37:37;;;;;;;14.00;8.10;;;8.20;99.90;;;;;;10061565;29;20253;-87
2023/03/18 02:42:40;;;;;;;22.23;14.07;;;8.40;99.90;;;;;;10059102;29;20643;-87
2023/03/18 02:47:46;;;;;;;21.87;13.97;;;8.20;94.30;;;;;;10050248;29;20664;-87
2023/03/18 02:52:49;;;;;;;21.73;12.60;;;8.60;93.30;;;;;;10057409;29;20249;-86
2023/03/18 02:57:52;;;;;;;14.67;8.33;;;7.80;98.10;;;;;;10087084;29;20319;-87
2023/03/18 03:02:55;;;;;;;14.53;9.17;;;8.60;99.90;;;;;;10071644;29;20636;-87
2023/03/18 03:07:58;;;;;;;11.70;8.97;;;9.20;98.80;;;;;;10075777;29;20633;-87
2023/03/18 03:13:03;;;;;;;17.33;10.70;;;9.10;97.10;;;;;;10051487;29;20237;-87
2023/03/18 03:18:06;;;;;;;18.07;12.53;;;8.70;98.00;;;;;;10073710;29;20316;-87
2023/03/18 03:23:14;;;;;;;16.50;9.67;;;8.20;94.00;;;;;;10067319;29;20317;-87
2023/03/18 03:28:17;;;;;;;16.30;11.10;;;8.20;94.80;;;;;;10056053;29;20245;-86
2023/03/18 03:33:20;;;;;;;14.83;9.43;;;8.60;93.90;;;;;;10057380;29;20748;-86
2023/03/18 03:38:23;;;;;;;23.00;13.47;;;8.40;99.50;;;;;;10075531;29;20609;-87
2023/03/18 03:43:29;;;;;;;17.57;11.80;;;8.70;90.80;;;;;;10070672;29;20257;-86
2023/03/18 03:48:32;;;;;;;17.70;10.77;;;7.60;89.10;;;;;;10086615;29;20250;-86
2023/03/18 03:53:35;;;;;;;20.70;11.90;;;7.60;95.80;;;;;;10107592;29;20303;-86
2023/03/18 03:58:38;;;;;;;23.67;15.73;;;7.40;92.80;;;;;;10054731;29;20241;-87
2023/03/18 04:03:41;;;;;;;28.47;15.63;;;6.50;85.70;;;;;;10070895;29;20798;-86
2023/03/18 04:08:45;;;;;;;24.83;13.60;;;6.50;92.10;;;;;;10092742;29;20998;-86
2023/03/18 04:13:47;;;;;;;19.43;12.43;;;6.40;92.60;;;;;;10088690;29;20315;-86
2023/03/18 04:18:50;;;;;;;11.93;8.77;;;5.90;93.00;;;;;;10054477;29;20281;-87
2023/03/18 04:23:58;;;;;;;24.00;13.77;;;6.50;99.90;;;;;;10066762;29;20333;-86
2023/03/18 04:29:02;;;;;;;18.10;9.73;;;6.60;95.80;;;;;;10055379;29;20614;-86
2023/03/18 04:34:06;;;;;;;15.67;9.17;;;6.90;99.90;;;;;;10084140;29;20249;-86
2023/03/18 04:39:08;;;;;;;14.47;8.87;;;6.90;99.90;;;;;;10073383;29;20253;-86
2023/03/18 04:44:12;;;;;;;15.07;8.40;;;7.20;99.40;;;;;;10091895;29;20339;-86
2023/03/18 04:49:21;;;;;;;18.10;10.60;;;7.00;99.90;;;;;;10089774;29;20244;-87
2023/03/18 04:54:23;;;;;;;13.43;6.77;;;7.70;99.90;;;;;;10090630;29;20703;-86
2023/03/18 04:59:29;;;;;;;18.17;11.60;;;8.00;99.90;;;;;;10090949;29;20244;-86
2023/03/18 05:04:35;;;;;;;24.67;10.73;;;8.20;94.70;;;;;;10072943;29;20731;-86
2023/03/18 05:09:38;;;;;;;18.07;9.90;;;7.80;95.80;;;;;;10052469;29;20286;-86
2023/03/18 05:14:42;;;;;;;15.93;11.13;;;8.50;95.80;;;;;;10103707;29;20252;-86
2023/03/18 05:19:47;;;;;;;18.33;11.20;;;8.20;95.40;;;;;;10068460;29;20727;-87
2023/03/18 05:24:54;;;;;;;21.13;13.63;;;7.80;91.50;;;;;;10110451;29;20257;-86
2023/03/18 05:30:00;;;;;;;19.83;13.83;;;7.40;80.50;;;;;;10089672;29;20300;-87
2023/03/18 05:35:23;;;;;;;17.27;11.03;;;6.70;80.30;;;;;;10090080;29;20311;-86
2023/03/18 05:40:28;;;;;;;18.93;12.47;;;6.90;91.20;;;;;;10089329;29;20247;-87
2023/03/18 05:45:45;;;;;;;27.53;13.43;;;6.50;84.70;;;;;;10075216;29;20277;-87
2023/03/18 05:50:51;;;;;;;16.47;9.93;;;6.70;89.10;;;;;;10089081;29;20252;-86
2023/03/18 05:55:58;;;;;;;16.17;10.80;;;7.10;99.90;;;;;;10060711;29;20291;-86
2023/03/18 06:01:01;;;;;;;21.93;11.93;;;7.00;91.20;;;;;;10081431;29;20245;-87
2023/03/18 06:06:05;;;;;;;18.43;11.33;;;7.00;95.30;;;;;;10067880;29;20236;-86
2023/03/18 06:11:08;;;;;;;18.87;12.67;;;7.20;96.10;;;;;;10073985;29;20241;-86
2023/03/18 06:16:11;;;;;;;10.10;7.50;;;7.90;96.30;;;;;;10070483;29;20241;-86
2023/03/18 06:21:14;;;;;;;17.43;11.63;;;8.70;99.90;;;;;;10088504;29;20264;-87
2023/03/18 06:26:17;;;;;;;15.53;11.40;;;8.30;81.50;;;;;;10067374;29;20241;-85
2023/03/18 06:31:22;;;;;;;17.30;6.93;;;7.80;94.20;;;;;;10055998;29;20335;-85
2023/03/18 06:36:26;;;;;;;19.03;9.67;;;9.10;99.90;;;;;;10063573;29;20305;-85
2023/03/18 06:41:29;;;;;;;12.90;8.30;;;9.70;93.30;;;;;;10069239;29;22170;-85
2023/03/18 06:46:57;;;;;;;17.07;10.70;;;9.80;97.10;;;;;;10073567;29;20240;-86
2023/03/18 06:52:01;;;;;;;22.47;13.20;;;9.20;83.60;;;;;;10093331;29;20252;-86
2023/03/18 06:57:05;;;;;;;19.43;13.03;;;8.70;75.80;;;;;;10095631;29;20304;-85
2023/03/18 07:02:09;;;;;;;12.33;7.60;;;8.70;79.20;;;;;;10086134;29;20273;-86
2023/03/18 07:07:12;;;;;;;19.67;11.60;;;8.90;97.90;;;;;;10061037;29;20281;-86
2023/03/18 07:12:16;;;;;;;19.53;10.33;;;9.20;93.00;;;;;;10091778;29;20241;-86
2023/03/18 07:17:19;;;;;;;14.93;9.87;;;8.70;84.60;;;;;;10073265;29;20276;-86
2023/03/18 07:22:22;;;;;;;14.33;9.50;;;9.00;93.80;;;;;;10080492;29;20273;-86
2023/03/18 07:27:24;;;;;;;17.17;11.67;;;9.30;94.30;;;;;;10056084;29;20282;-86
2023/03/18 07:32:29;;;;;;;10.07;7.63;;;9.20;72.10;;;;;;10079114;29;20240;-86
2023/03/18 07:37:32;;;;;;;17.60;11.73;;;9.10;91.10;;;;;;10058475;29;20265;-86
2023/03/18 07:42:35;;;;;;;14.93;10.80;;;9.40;77.30;;;;;;10056608;29;20714;-87
2023/03/18 07:47:37;;;;;;;15.70;10.87;;;9.40;90.00;;;;;;10056366;29;20245;-86
2023/03/18 07:52:40;;;;;;;18.17;10.73;;;9.50;60.70;;;;;;10093962;29;20304;-86
2023/03/18 07:57:43;;;;;;;14.83;9.93;;;9.70;68.60;;;;;;10088070;29;20261;-86
2023/03/18 08:02:45;;;;;;;17.03;9.37;;;9.60;72.80;;;;;;10075590;29;20710;-87
2023/03/18 08:07:48;;;;;;;11.50;6.93;;;9.10;58.20;;;;;;10069553;29;20655;-86
2023/03/18 08:12:51;;;;;;;15.33;7.47;;;9.00;65.00;;;;;;10055815;29;20687;-86
2023/03/18 08:17:55;;;;;;;13.23;9.33;;;9.10;66.10;;;;;;10071555;29;20268;-87
2023/03/18 08:22:57;;;;;;;12.23;7.60;;;9.20;58.60;;;;;;10092633;29;20316;-86
2023/03/18 08:28:00;;;;;;;12.07;8.87;;;9.20;61.50;;;;;;10093086;29;20244;-86
2023/03/18 08:33:03;;;;;;;13.97;9.03;;;9.50;60.00;;;;;;10094044;29;20259;-86
2023/03/18 08:38:06;;;;;;;11.07;8.50;;;9.50;52.50;;;;;;10092449;29;20315;-87
2023/03/18 08:43:08;;;;;;;16.07;8.43;;;9.40;61.00;;;;;;10089012;29;20256;-87
2023/03/18 08:48:12;;;;;;;17.80;9.50;;;9.70;60.90;;;;;;9381757;29;10000691;-87
2023/03/18 08:53:15;;;;;;;10.87;7.30;;;9.60;52.50;;;;;;10086826;29;20327;-86
2023/03/18 08:58:18;;;;;;;12.10;8.40;;;9.70;56.30;;;;;;10090283;29;20249;-86
2023/03/18 09:03:20;;;;;;;14.37;8.30;;;9.70;51.50;;;;;;10090348;29;20258;-86
2023/03/18 09:08:24;;;;;;;11.77;8.30;;;9.90;53.10;;;;;;10090989;29;20654;-86
2023/03/18 09:13:27;;;;;;;12.00;8.27;;;10.10;52.00;;;;;;10093627;29;20633;-87
2023/03/18 09:18:30;;;;;;;11.97;7.40;;;10.00;47.60;;;;;;10104950;29;20372;-87
2023/03/18 09:23:33;;;;;;;14.50;8.23;;;10.10;55.40;;;;;;10108172;29;20271;-87
2023/03/18 09:28:36;;;;;;;13.70;7.60;;;10.20;48.70;;;;;;10107107;29;20272;-87
2023/03/18 09:33:40;;;;;;;12.63;7.40;;;10.30;49.50;;;;;;10109256;29;20240;-86
2023/03/18 09:38:43;;;;;;;9.57;5.97;;;10.50;55.10;;;;;;10106840;29;20312;-87
2023/03/18 09:44:01;;;;;;;9.53;6.53;;;10.90;89.40;;;;;;10105287;29;20268;-87
2023/03/18 09:49:18;;;;;;;10.53;6.27;;;10.80;52.60;;;;;;10102629;29;20686;-87
2023/03/18 09:54:40;;;;;;;8.97;5.90;;;10.80;60.50;;;;;;10091921;29;20292;-87
2023/03/18 09:59:47;;;;;;;11.50;7.00;;;10.80;53.30;;;;;;10092687;29;20252;-88
2023/03/18 10:04:57;;;;;;;15.83;6.87;;;11.10;56.60;;;;;;10083661;29;20924;-87
2023/03/18 10:10:09;;;;;;;8.47;6.30;;;11.30;44.90;;;;;;10091780;29;20639;-87
2023/03/18 10:15:18;;;;;;;11.43;7.27;;;11.60;48.20;;;;;;10110111;29;20266;-88
2023/03/18 10:20:33;;;;;;;11.57;7.50;;;11.90;49.20;;;;;;10091585;29;20335;-88
2023/03/18 10:25:48;;;;;;;9.60;6.80;;;12.00;40.50;;;;;;10097505;29;20727;-88
2023/03/18 10:31:02;;;;;;;11.53;7.17;;;12.00;38.50;;;;;;10101946;29;20230;-88
2023/03/18 10:36:12;;;;;;;15.27;8.00;;;12.40;37.70;;;;;;10095819;29;20256;-88
2023/03/18 10:41:27;;;;;;;10.37;7.87;;;12.60;37.60;;;;;;10089510;29;20327;-88
2023/03/18 10:46:33;;;;;;;12.17;8.20;;;12.50;37.80;;;;;;10089127;29;20668;-88
2023/03/18 10:51:51;;;;;;;10.90;6.90;;;12.70;37.90;;;;;;10088960;29;20298;-88
2023/03/18 10:56:54;;;;;;;11.57;8.00;;;12.70;40.10;;;;;;10088428;29;20279;-88
2023/03/18 11:02:16;;;;;;;12.33;6.20;;;12.80;34.60;;;;;;10076783;29;20257;-88
2023/03/18 11:07:25;;;;;;;10.10;7.60;;;12.90;36.50;;;;;;10080380;29;20909;-88
2023/03/18 11:12:31;;;;;;;13.17;7.47;;;13.10;35.40;;;;;;10083102;29;20693;-88
2023/03/18 11:17:36;;;;;;;14.30;7.73;;;13.20;41.80;;;;;;10064786;29;20261;-88
2023/03/18 11:22:44;;;;;;;17.87;8.77;;;13.30;33.90;;;;;;10079586;29;20261;-89
2023/03/18 11:27:50;;;;;;;12.37;7.40;;;13.20;32.80;;;;;;10067933;29;20315;-88
2023/03/18 11:33:12;;;;;;;15.27;9.20;;;13.20;34.80;;;;;;10072780;29;20454;-88
2023/03/18 11:38:28;;;;;;;16.40;9.47;;;13.30;33.10;;;;;;10095686;29;20225;-88
2023/03/18 11:43:31;;;;;;;11.33;5.63;;;13.30;37.40;;;;;;10069922;29;20315;-88
2023/03/18 11:48:36;;;;;;;16.87;8.40;;;13.40;46.70;;;;;;10082178;29;20313;-86
2023/03/18 11:54:18;;;;;;;13.20;8.57;;;13.60;36.10;;;;;;10130898;29;20251;-86
2023/03/18 11:59:34;;;;;;;8.10;6.00;;;13.60;34.90;;;;;;10084192;29;21077;-85
2023/03/18 12:05:15;;;;;;;13.67;8.60;;;13.80;41.60;;;;;;10070777;29;20730;-85
2023/03/18 12:10:36;;;;;;;11.10;7.97;;;13.80;34.90;;;;;;10062435;29;20256;-87
2023/03/18 12:16:09;;;;;;;11.73;8.33;;;13.90;34.20;;;;;;10057481;29;20302;-87
2023/03/18 12:21:27;;;;;;;11.60;7.60;;;13.90;31.30;;;;;;10084627;29;20843;-86
2023/03/18 12:26:45;;;;;;;12.73;6.60;;;13.80;35.60;;;;;;10087653;29;20769;-88
2023/03/18 12:32:21;;;;;;;16.43;8.53;;;14.00;38.90;;;;;;10056139;29;20250;-88
2023/03/18 12:37:36;;;;;;;10.53;7.17;;;14.20;31.00;;;;;;10055724;29;20986;-88
2023/03/18 12:43:22;;;;;;;11.73;8.40;;;14.20;30.00;;;;;;10057163;29;20305;-88
2023/03/18 12:48:31;;;;;;;13.03;9.13;;;14.10;30.50;;;;;;10056864;29;20245;-88
2023/03/18 12:53:51;;;;;;;15.23;8.43;;;14.00;30.20;;;;;;10056271;29;20664;-88
2023/03/18 12:59:23;;;;;;;13.57;8.07;;;13.90;31.20;;;;;;10054712;29;20630;-88
2023/03/18 13:04:31;;;;;;;13.43;8.70;;;14.10;33.20;;;;;;10086543;29;20271;-88
2023/03/18 13:09:39;;;;;;;14.10;8.87;;;14.20;30.40;;;;;;10091605;29;20322;-88
2023/03/18 13:14:59;;;;;;;11.90;8.60;;;14.20;30.70;;;;;;10091738;29;20255;-88
2023/03/18 13:20:11;;;;;;;16.50;9.77;;;14.00;29.00;;;;;;10092197;29;20642;-88
2023/03/18 13:25:42;;;;;;;15.63;9.27;;;13.90;30.90;;;;;;10091036;29;20276;-88
2023/03/18 13:30:55;;;;;;;16.00;9.60;;;13.90;31.70;;;;;;10091037;29;20269;-88
2023/03/18 13:36:17;;;;;;;14.00;5.93;;;14.00;30.00;;;;;;10092011;29;20252;-88
2023/03/18 13:41:44;;;;;;;15.40;9.53;;;14.00;33.40;;;;;;10091796;29;20248;-88
2023/03/18 13:46:57;;;;;;;15.67;9.20;;;14.00;30.90;;;;;;10091636;29;20272;-88
2023/03/18 13:52:05;;;;;;;17.17;9.10;;;14.00;30.90;;;;;;10091054;29;20308;-87
2023/03/18 13:57:23;;;;;;;19.40;10.23;;;14.00;30.00;;;;;;10088996;29;20276;-89
2023/03/18 14:02:33;;;;;;;14.97;9.10;;;14.20;31.00;;;;;;10090694;29;20316;-88
2023/03/18 14:07:48;;;;;;;15.00;8.10;;;14.40;30.40;;;;;;10090903;29;20283;-88
2023/03/18 14:12:51;;;;;;;12.70;8.20;;;14.40;29.90;;;;;;10090980;29;20244;-88
2023/03/18 14:17:57;;;;;;;15.13;9.07;;;14.50;29.40;;;;;;10088741;29;20350;-88
2023/03/18 14:23:34;;;;;;;14.90;8.90;;;14.60;31.90;;;;;;10088850;29;20247;-88
2023/03/18 14:28:45;;;;;;;23.67;8.87;;;14.50;29.30;;;;;;10067121;29;20304;-88
2023/03/18 14:34:15;;;;;;;30.83;11.27;;;14.40;28.60;;;;;;10090588;29;20240;-88
2023/03/18 14:39:45;;;;;;;18.23;9.17;;;14.40;29.30;;;;;;10073187;29;20336;-88
2023/03/18 14:44:54;;;;;;;14.60;9.20;;;14.40;31.10;;;;;;10088414;29;20658;-88
2023/03/18 14:50:03;;;;;;;15.73;9.50;;;14.20;32.10;;;;;;10089728;29;20237;-88
2023/03/18 14:55:21;;;;;;;15.43;9.60;;;14.10;32.80;;;;;;10090016;29;20296;-88
2023/03/18 15:00:24;;;;;;;18.17;10.47;;;14.00;34.00;;;;;;10126927;29;20295;-88
2023/03/18 15:05:33;;;;;;;16.77;10.47;;;13.90;33.10;;;;;;10127719;29;20339;-88
2023/03/18 15:10:36;;;;;;;16.17;10.07;;;13.80;34.40;;;;;;10133003;29;20251;-88
2023/03/18 15:15:40;;;;;;;16.13;10.40;;;13.70;35.90;;;;;;10135170;29;20666;-88
2023/03/18 15:20:45;;;;;;;14.47;10.73;;;13.50;38.10;;;;;;10133505;29;20275;-88
2023/03/18 15:25:48;;;;;;;16.07;11.20;;;13.30;38.50;;;;;;10133641;29;20334;-88
2023/03/18 15:30:55;;;;;;;18.37;12.57;;;13.20;42.80;;;;;;10134858;29;20400;-88
2023/03/18 15:36:15;;;;;;;21.57;10.33;;;13.10;41.30;;;;;;10134650;29;20247;-88
2023/03/18 15:41:21;;;;;;;20.17;11.20;;;13.00;44.20;;;;;;10134318;29;20723;-87
2023/03/18 15:46:31;;;;;;;19.47;12.20;;;12.80;46.70;;;;;;10134172;29;20682;-88
2023/03/18 15:51:42;;;;;;;23.03;12.13;;;12.60;48.90;;;;;;10132653;29;20276;-88
2023/03/18 15:56:48;;;;;;;20.57;12.10;;;12.40;48.50;;;;;;10133787;29;20252;-87
2023/03/18 16:01:53;;;;;;;21.43;13.10;;;12.20;50.90;;;;;;10132231;29;20254;-88
2023/03/18 16:06:56;;;;;;;23.70;14.70;;;12.10;50.80;;;;;;10131894;29;20294;-88
2023/03/18 16:12:11;;;;;;;21.50;13.03;;;11.90;50.90;;;;;;10119041;29;20700;-88
2023/03/18 16:17:19;;;;;;;27.50;14.70;;;11.70;52.00;;;;;;10094092;29;20291;-88
2023/03/18 16:22:23;;;;;;;30.40;14.93;;;11.50;54.80;;;;;;10093286;29;20324;-88
2023/03/18 16:27:38;;;;;;;25.40;14.27;;;11.30;55.90;;;;;;10093980;29;20403;-88
2023/03/18 16:32:41;;;;;;;27.07;15.53;;;11.10;59.60;;;;;;10094096;29;20228;-87
2023/03/18 16:37:45;;;;;;;33.33;16.00;;;11.00;62.80;;;;;;10093102;29;20252;-87
2023/03/18 16:42:49;;;;;;;33.00;16.70;;;10.70;70.70;;;;;;10093330;29;20303;-88
2023/03/18 16:47:55;;;;;;;32.73;19.47;;;10.50;70.80;;;;;;10091958;29;20346;-88
2023/03/18 16:52:58;;;;;;;43.33;19.63;;;10.40;76.50;;;;;;10092922;29;20253;-88
2023/03/18 16:58:01;;;;;;;35.00;20.37;;;10.30;73.50;;;;;;10091414;29;20248;-88
2023/03/18 17:03:04;;;;;;;40.27;18.93;;;10.10;87.10;;;;;;10092623;29;20247;-88
2023/03/18 17:08:06;;;;;;;15.10;6.60;;;9.90;87.90;;;;;;10088240;29;20312;-82
2023/03/18 17:13:21;;;;;;;21.47;11.87;;;9.80;91.80;;;;;;10057235;29;20247;-86
2023/03/18 17:18:24;;;;;;;28.53;15.27;;;10.30;96.30;;;;;;10061512;29;20257;-86
2023/03/18 17:23:27;;;;;;;27.17;13.93;;;10.50;92.50;;;;;;10089558;29;20296;-85
2023/03/18 17:28:39;;;;;;;18.43;12.30;;;10.20;93.40;;;;;;10073518;29;20268;-85
2023/03/18 17:33:42;;;;;;;52.33;29.90;;;10.20;96.70;;;;;;10065921;29;20232;-85
2023/03/18 17:38:44;;;;;;;47.40;29.83;;;10.90;96.10;;;;;;10091916;29;20300;-86
2023/03/18 17:43:47;;;;;;;35.07;23.47;;;10.90;88.70;;;;;;10072686;29;20861;-85
2023/03/18 17:48:50;;;;;;;22.07;14.27;;;10.40;94.90;;;;;;9752736;29;9999588;-86
2023/03/18 17:53:57;;;;;;;39.57;20.40;;;10.40;98.30;;;;;;10076799;29;22032;-89
2023/03/18 17:59:02;;;;;;;41.93;25.67;;;10.40;98.00;;;;;;10086839;29;20237;-89
2023/03/18 18:04:06;;;;;;;63.23;32.80;;;10.50;94.20;;;;;;10086839;29;20244;-89
2023/03/18 18:09:14;;;;;;;51.63;30.37;;;9.70;95.30;;;;;;10087072;29;20296;-89
2023/03/18 18:14:27;;;;;;;39.57;24.83;;;9.10;95.60;;;;;;10087861;29;20634;-90
2023/03/18 18:19:33;;;;;;;46.70;29.53;;;8.70;97.20;;;;;;10086872;29;20283;-90
2023/03/18 18:24:37;;;;;;;44.00;26.73;;;8.50;98.10;;;;;;10087140;29;20304;-89
2023/03/18 18:29:42;;;;;;;45.30;27.53;;;8.20;99.20;;;;;;10086356;29;20240;-89
2023/03/18 18:34:45;;;;;;;48.20;25.43;;;8.10;99.50;;;;;;10088066;29;20251;-90
2023/03/18 18:39:48;;;;;;;43.13;22.90;;;7.90;99.20;;;;;;10086045;29;20300;-90
2023/03/18 18:44:51;;;;;;;37.40;23.97;;;7.70;99.50;;;;;;10090700;29;20354;-89
2023/03/18 18:49:54;;;;;;;42.80;25.03;;;7.40;99.90;;;;;;10092705;29;20265;-89
2023/03/18 18:54:56;;;;;;;50.10;28.77;;;7.10;99.90;;;;;;10092566;29;20330;-89
2023/03/18 18:59:59;;;;;;;50.37;30.13;;;7.00;99.90;;;;;;10093157;29;20775;-89
2023/03/18 19:05:03;;;;;;;54.13;32.83;;;6.80;99.90;;;;;;10094889;29;20749;-89
2023/03/18 19:10:11;;;;;;;48.73;29.63;;;6.70;99.90;;;;;;10094475;29;20687;-89
2023/03/18 19:15:13;;;;;;;55.50;33.37;;;6.60;99.90;;;;;;10054380;29;20253;-89
2023/03/18 19:20:28;;;;;;;55.97;35.50;;;6.50;99.90;;;;;;10054350;29;20739;-89
2023/03/18 19:25:30;;;;;;;58.90;36.10;;;6.40;99.90;;;;;;10054515;29;20682;-89
2023/03/18 19:30:33;;;;;;;55.40;31.10;;;6.20;99.90;;;;;;10038941;29;20241;-88
2023/03/18 19:35:37;;;;;;;55.07;33.80;;;6.10;99.90;;;;;;10053801;29;20249;-89
2023/03/18 19:40:41;;;;;;;212.17;113.50;;;6.00;99.90;;;;;;10054984;29;20245;-89
2023/03/18 19:45:45;;;;;;;246.03;132.20;;;5.90;99.90;;;;;;10064303;29;20784;-87
2023/03/18 19:50:50;;;;;;;146.30;76.13;;;6.10;99.90;;;;;;10069533;29;20304;-85
2023/03/18 19:55:53;;;;;;;76.87;40.17;;;5.80;99.90;;;;;;10055120;29;20775;-86
2023/03/18 20:00:56;;;;;;;72.20;42.97;;;5.60;99.90;;;;;;10063490;29;20702;-85
2023/03/18 20:05:59;;;;;;;84.10;47.97;;;5.40;99.90;;;;;;10075155;29;20280;-85
2023/03/18 20:11:02;;;;;;;79.90;47.73;;;4.90;99.90;;;;;;10085889;29;20256;-85
2023/03/18 20:16:06;;;;;;;71.60;36.30;;;4.90;99.90;;;;;;10077423;29;20241;-85
2023/03/18 20:21:41;;;;;;;64.60;31.37;;;4.60;99.90;;;;;;10056389;29;20815;-85
2023/03/18 20:26:44;;;;;;;59.93;30.60;;;4.60;99.90;;;;;;9992147;29;20771;-84
2023/03/18 20:31:49;;;;;;;67.23;35.30;;;4.80;99.90;;;;;;10011871;29;20386;-84
2023/03/18 20:36:52;;;;;;;70.93;38.80;;;4.90;99.90;;;;;;9996710;29;20243;-84
2023/03/18 20:41:54;;;;;;;71.50;39.07;;;5.20;99.90;;;;;;10011790;29;20244;-84
2023/03/18 20:46:57;;;;;;;80.83;42.00;;;5.10;99.90;;;;;;9675250;29;10000142;-84
2023/03/18 20:52:00;;;;;;;80.10;41.97;;;5.00;99.90;;;;;;9992539;29;20254;-85
2023/03/18 20:57:02;;;;;;;82.43;47.13;;;4.90;99.90;;;;;;10007792;29;20245;-85
2023/03/18 21:02:26;;;;;;;91.57;46.57;;;4.80;99.90;;;;;;10042406;29;20673;-85
2023/03/18 21:07:29;;;;;;;69.13;38.97;;;4.90;99.90;;;;;;10080593;29;20296;-84
2023/03/18 21:12:33;;;;;;;62.40;36.40;;;5.30;99.90;;;;;;10071786;29;20240;-84
2023/03/18 21:17:37;;;;;;;68.27;39.70;;;5.20;99.90;;;;;;10088571;29;20328;-85
2023/03/18 21:22:41;;;;;;;81.60;42.37;;;4.90;99.90;;;;;;10085435;29;20327;-84
2023/03/18 21:27:45;;;;;;;84.30;44.13;;;4.90;99.90;;;;;;10087511;29;20311;-85
2023/03/18 21:32:49;;;;;;;59.60;35.63;;;4.90;99.90;;;;;;10080092;29;20266;-85
2023/03/18 21:37:52;;;;;;;71.60;42.77;;;5.10;99.90;;;;;;10066826;29;20273;-85
2023/03/18 21:42:55;;;;;;;69.43;36.57;;;5.10;99.90;;;;;;10087263;29;20244;-85
2023/03/18 21:47:57;;;;;;;58.43;33.83;;;5.10;99.90;;;;;;10087939;29;20269;-85
2023/03/18 21:53:00;;;;;;;63.40;36.70;;;5.10;99.90;;;;;;10086484;29;20256;-84
2023/03/18 21:58:03;;;;;;;68.47;37.57;;;4.90;99.90;;;;;;10085961;29;20274;-84
2023/03/18 22:03:15;;;;;;;59.63;34.40;;;4.60;99.90;;;;;;10048820;29;20249;-84
2023/03/18 22:08:19;;;;;;;58.57;33.80;;;4.60;99.90;;;;;;10069645;29;20305;-84
2023/03/18 22:13:24;;;;;;;54.97;33.93;;;4.50;99.90;;;;;;10061483;29;20313;-84
2023/03/18 22:18:27;;;;;;;53.53;32.47;;;4.40;99.90;;;;;;10049008;29;20277;-85
2023/03/18 22:23:31;;;;;;;62.47;36.20;;;4.60;99.90;;;;;;10055966;29;20253;-85
2023/03/18 22:28:33;;;;;;;65.77;36.60;;;4.50;99.90;;;;;;10074885;29;20341;-84
2023/03/18 22:33:36;;;;;;;64.23;35.53;;;4.40;99.90;;;;;;10086171;29;20291;-84
2023/03/18 22:38:39;;;;;;;71.97;36.63;;;4.30;99.90;;;;;;10086841;29;20252;-84
2023/03/18 22:43:41;;;;;;;61.80;37.70;;;4.20;99.90;;;;;;10086508;29;20277;-84
2023/03/18 22:48:44;;;;;;;71.23;39.53;;;4.10;99.90;;;;;;10074063;29;20340;-84
2023/03/18 22:53:49;;;;;;;70.70;37.70;;;4.00;99.90;;;;;;10068407;29;20272;-83
2023/03/18 22:58:52;;;;;;;77.60;41.30;;;4.00;99.90;;;;;;10089417;29;20691;-84
2023/03/18 23:03:55;;;;;;;90.13;43.33;;;3.90;99.90;;;;;;10079093;29;20317;-84
2023/03/18 23:08:57;;;;;;;80.10;41.70;;;3.90;99.90;;;;;;10068257;29;20284;-83
2023/03/18 23:14:02;;;;;;;78.43;41.10;;;3.80;99.90;;;;;;10064274;29;20755;-84
2023/03/18 23:19:04;;;;;;;80.40;46.00;;;3.60;99.90;;;;;;10110306;29;20253;-84
2023/03/18 23:24:08;;;;;;;71.13;38.30;;;3.40;99.90;;;;;;10119629;29;20771;-85
2023/03/18 23:29:11;;;;;;;59.73;33.37;;;3.60;99.90;;;;;;10091096;29;20346;-85
2023/03/18 23:34:13;;;;;;;59.00;33.43;;;3.60;99.90;;;;;;10096594;29;20296;-85
2023/03/18 23:39:16;;;;;;;66.20;40.83;;;3.50;99.90;;;;;;10072279;29;20286;-86
2023/03/18 23:44:19;;;;;;;66.07;37.00;;;3.30;99.90;;;;;;10085139;29;20228;-85
2023/03/18 23:49:21;;;;;;;72.10;38.27;;;3.30;99.90;;;;;;10114192;29;20288;-85
2023/03/18 23:54:24;;;;;;;56.23;34.00;;;3.40;99.90;;;;;;10118498;29;20939;-85
2023/03/18 23:59:28;;;;;;;67.33;35.57;;;3.40;99.90;;;;;;10116543;29;20857;-85
